Time;durP1;ratioP1;P1;durP2;ratioP2;P2;SDS_P1;SDS_P2;PMS_P1;PMS_P2;Temp;Humidity;BMP_temperature;BMP_pressure;BME280_temperature;BME280_humidity;BME280_pressure;Samples;Min_cycle;Max_cycle;Signal;HPM_P1;HPM_P2
2022/05/28 00:00:56;;;;;;;8.75;2.03;;;;;;;19.96;47.83;100874.78;2110719;28;20076;-71
2022/05/28 00:02:19;;;;;;;5.35;1.80;;;;;;;19.96;47.91;100872.09;2109830;28;20055;-71
2022/05/28 00:03:44;;;;;;;10.07;1.98;;;;;;;19.96;48.26;100881.03;2102717;28;20063;-70
2022/05/28 00:05:08;;;;;;;5.07;1.70;;;;;;;19.96;48.36;100874.78;2100513;28;20496;-70
2022/05/28 00:06:31;;;;;;;5.63;2.20;;;;;;;19.90;48.57;100871.31;2100392;28;20445;-72
2022/05/28 00:07:54;;;;;;;6.60;3.40;;;;;;;19.86;48.88;100871.44;2101969;28;20043;-71
2022/05/28 00:09:17;;;;;;;10.35;3.03;;;;;;;19.80;49.04;100876.91;2102699;28;20060;-70
2022/05/28 00:10:39;;;;;;;4.32;2.20;;;;;;;19.76;49.45;100875.19;2110885;28;20051;-71
2022/05/28 00:12:02;;;;;;;7.78;2.05;;;;;;;19.74;49.70;100874.38;2099391;28;20098;-71
2022/05/28 00:13:25;;;;;;;4.22;1.52;;;;;;;19.74;50.11;100879.72;2099987;28;20094;-70
2022/05/28 00:14:48;;;;;;;6.47;2.10;;;;;;;19.73;50.35;100873.47;2099882;28;20087;-71
2022/05/28 00:16:10;;;;;;;4.88;1.92;;;;;;;19.72;50.05;100860.13;2108502;28;20039;-71
2022/05/28 00:17:33;;;;;;;7.65;1.65;;;;;;;19.71;50.09;100871.72;2102575;28;20056;-71
2022/05/28 00:18:56;;;;;;;5.72;1.70;;;;;;;19.68;49.86;100875.38;2102682;28;20527;-71
2022/05/28 00:20:21;;;;;;;11.73;2.33;;;;;;;19.66;50.04;100870.94;2104483;28;20109;-71
2022/05/28 00:21:43;;;;;;;5.05;1.52;;;;;;;19.65;49.89;100863.81;2093919;28;20051;-71
2022/05/28 00:23:07;;;;;;;7.20;1.60;;;;;;;19.63;49.71;100866.53;2108163;28;20078;-71
2022/05/28 00:24:28;;;;;;;4.90;1.80;;;;;;;19.64;49.61;100870.97;2111145;28;20439;-72
2022/05/28 00:25:51;;;;;;;8.88;1.65;;;;;;;19.64;49.67;100862.94;2110464;28;20587;-72
2022/05/28 00:27:13;;;;;;;8.90;1.98;;;;;;;19.62;49.81;100859.44;2113500;27;20039;-72
2022/05/28 00:28:35;;;;;;;5.38;1.90;;;;;;;19.56;49.93;100862.19;2111000;28;20055;-72
2022/05/28 00:29:58;;;;;;;9.10;2.60;;;;;;;19.52;50.11;100860.50;2116361;27;20459;-72
2022/05/28 00:31:21;;;;;;;3.85;1.30;;;;;;;19.53;50.27;100858.72;2121861;27;20046;-73
2022/05/28 00:32:44;;;;;;;6.10;1.77;;;;;;;19.53;50.37;100862.28;2110458;28;20035;-71
2022/05/28 00:34:07;;;;;;;7.25;1.88;;;;;;;19.51;50.55;100858.75;2105091;28;20053;-72
2022/05/28 00:35:30;;;;;;;7.55;2.05;;;;;;;19.51;50.93;100866.78;2116690;27;20115;-72
2022/05/28 00:36:52;;;;;;;6.72;2.25;;;;;;;19.50;50.86;100862.31;2110969;28;20098;-72
2022/05/28 00:38:15;;;;;;;6.75;2.10;;;;;;;19.47;51.15;100862.41;2112886;27;20537;-72
2022/05/28 00:39:37;;;;;;;10.50;2.83;;;;;;;19.43;51.46;100863.31;2109615;28;20084;-72
2022/05/28 00:41:00;;;;;;;7.80;3.03;;;;;;;19.37;51.73;100853.59;2108538;28;20143;-71
2022/05/28 00:42:23;;;;;;;10.32;2.70;;;;;;;19.39;52.23;100858.94;2110538;28;20130;-72
2022/05/28 00:43:47;;;;;;;9.68;2.13;;;;;;;19.41;52.35;100849.09;2110701;28;20119;-72
2022/05/28 00:45:10;;;;;;;6.63;2.22;;;;;;;19.43;52.61;100849.94;2111169;28;20044;-70
2022/05/28 00:46:33;;;;;;;3.65;1.55;;;;;;;19.43;52.91;100850.81;2102305;28;20130;-71
2022/05/28 00:47:58;;;;;;;5.07;1.75;;;;;;;19.42;52.81;100846.41;2108229;28;20141;-72
2022/05/28 00:49:27;;;;;;;7.25;1.88;;;;;;;19.39;52.54;100850.91;2111253;28;20548;-72
2022/05/28 00:50:51;;;;;;;6.93;1.77;;;;;;;19.36;52.92;100845.63;2102578;28;20329;-72
2022/05/28 00:52:15;;;;;;;7.60;2.35;;;;;;;19.39;52.82;100845.56;2108075;28;20055;-72
2022/05/28 00:53:36;;;;;;;8.25;2.10;;;;;;;19.39;53.03;100840.19;2109905;28;20054;-72
2022/05/28 00:54:59;;;;;;;6.95;2.00;;;;;;;19.35;53.19;100836.72;2096538;28;20131;-72
2022/05/28 00:56:22;;;;;;;11.70;1.90;;;;;;;19.32;53.28;100833.19;2102876;28;20047;-72
2022/05/28 00:57:46;;;;;;;4.93;1.70;;;;;;;19.31;53.34;100837.66;2110603;28;20426;-72
2022/05/28 00:59:08;;;;;;;7.90;2.20;;;;;;;19.28;53.21;100837.75;2102330;28;20052;-72
2022/05/28 01:00:30;;;;;;;7.60;2.22;;;;;;;19.24;53.40;100837.81;2116562;27;20589;-72
2022/05/28 01:01:57;;;;;;;7.55;2.15;;;;;;;19.24;53.27;100837.81;2105064;28;20543;-72
2022/05/28 01:03:28;;;;;;;4.82;2.00;;;;;;;19.22;53.58;100837.84;2100601;28;20047;-72
2022/05/28 01:04:57;;;;;;;5.93;2.00;;;;;;;19.18;53.82;100833.44;2103099;28;20104;-72
2022/05/28 01:06:29;;;;;;;7.28;1.95;;;;;;;19.13;53.97;100846.03;2111427;27;20040;-72
2022/05/28 01:08:10;;;;;;;8.48;2.28;;;;;;;19.14;54.18;100839.78;2096406;28;20571;-73
2022/05/28 01:09:40;;;;;;;7.43;2.15;;;;;;;19.17;54.28;100829.00;2104263;28;20275;-72
2022/05/28 01:11:10;;;;;;;4.97;1.92;;;;;;;19.20;54.47;100823.63;2096014;28;20551;-72
2022/05/28 01:12:41;;;;;;;7.70;2.20;;;;;;;19.24;54.35;100819.94;2109812;28;20059;-72
2022/05/28 01:14:10;;;;;;;10.88;3.20;;;;;;;19.29;54.42;100825.25;2105665;28;20055;-72
2022/05/28 01:15:35;;;;;;;8.02;3.40;;;;;;;19.32;54.98;100827.84;2088936;28;20135;-72
2022/05/28 01:17:02;;;;;;;4.82;2.22;;;;;;;19.32;55.65;100822.50;2109615;28;20036;-72
2022/05/28 01:18:31;;;;;;;9.18;2.47;;;;;;;19.32;55.96;100819.81;2107172;28;20051;-71
2022/05/28 01:20:03;;;;;;;8.95;2.67;;;;;;;19.25;56.11;100819.03;2113713;27;20670;-72
2022/05/28 01:21:36;;;;;;;8.20;2.65;;;;;;;19.18;56.44;100809.38;2107514;28;20094;-71
2022/05/28 01:23:16;;;;;;;10.88;3.20;;;;;;;19.16;56.67;100813.88;2106383;28;20519;-72
2022/05/28 01:24:47;;;;;;;6.97;2.35;;;;;;;19.16;56.74;100813.00;2099120;28;20425;-72
2022/05/28 01:26:20;;;;;;;9.80;2.40;;;;;;;19.16;56.97;100807.66;2104315;28;20074;-72
2022/05/28 01:27:49;;;;;;;6.40;2.20;;;;;;;19.17;56.84;100799.56;2106131;28;20157;-71
2022/05/28 01:29:15;;;;;;;8.57;3.20;;;;;;;19.19;56.81;100804.91;2114121;28;20142;-71
2022/05/28 01:30:41;;;;;;;6.38;2.75;;;;;;;19.21;56.96;100803.97;2112102;28;20039;-71
2022/05/28 01:32:05;;;;;;;14.93;2.60;;;;;;;19.24;57.02;100803.00;2112484;27;20130;-72
2022/05/28 01:33:27;;;;;;;12.25;2.83;;;;;;;19.20;57.57;100804.00;2105135;28;20159;-72
2022/05/28 01:34:50;;;;;;;7.53;2.88;;;;;;;19.13;57.76;100799.66;2113124;28;20040;-72
2022/05/28 01:36:15;;;;;;;6.47;2.40;;;;;;;19.13;58.27;100794.31;2098857;28;20040;-72
2022/05/28 01:37:38;;;;;;;7.28;2.50;;;;;;;19.14;58.62;100796.97;2111426;28;20130;-72
2022/05/28 01:39:02;;;;;;;7.18;2.97;;;;;;;19.17;58.87;100801.34;2106983;28;20063;-72
2022/05/28 01:40:26;;;;;;;7.25;2.97;;;;;;;19.17;58.76;100796.88;2104819;28;20118;-71
2022/05/28 01:41:50;;;;;;;7.43;2.42;;;;;;;19.17;59.08;100794.22;2105133;28;20664;-72
2022/05/28 01:43:18;;;;;;;9.90;2.55;;;;;;;19.07;59.25;100788.16;2113282;28;20480;-72
2022/05/28 01:44:42;;;;;;;7.60;2.38;;;;;;;18.99;59.72;100783.88;2098874;28;20073;-72
2022/05/28 01:46:06;;;;;;;7.95;2.78;;;;;;;19.00;59.88;100788.31;2103095;28;20043;-71
2022/05/28 01:47:29;;;;;;;6.90;2.53;;;;;;;19.05;60.00;100791.78;2110723;28;20523;-71
2022/05/28 01:48:55;;;;;;;8.05;3.00;;;;;;;19.06;60.07;100789.06;2104778;28;20488;-71
2022/05/28 01:50:21;;;;;;;10.57;2.78;;;;;;;19.07;60.15;100796.19;2116211;27;20127;-71
2022/05/28 01:51:48;;;;;;;10.82;3.30;;;;;;;19.07;60.26;100790.84;2122197;27;20070;-71
2022/05/28 01:54:06;;;;;;;8.95;2.85;;;;;;;19.07;60.14;100790.84;2123233;27;20511;-72
2022/05/28 01:54:57;;;;;;;7.78;2.53;;;;;;;19.08;60.05;100781.03;2124087;27;20491;-71
2022/05/28 01:56:20;;;;;;;5.82;2.38;;;;;;;19.10;59.90;100788.09;2121865;27;20096;-71
2022/05/28 01:57:41;;;;;;;7.55;2.75;;;;;;;19.10;60.10;100780.06;2121427;27;20051;-71
2022/05/28 01:59:07;;;;;;;12.13;3.60;;;;;;;19.07;60.22;100788.16;2110012;28;20098;-71
2022/05/28 02:00:30;;;;;;;8.80;3.35;;;;;;;19.05;60.23;100784.63;2114285;28;20415;-71
2022/05/28 02:01:53;;;;;;;6.05;2.47;;;;;;;19.01;60.39;100784.72;2113078;28;20043;-71
2022/05/28 02:03:15;;;;;;;8.05;2.30;;;;;;;18.97;60.58;100780.34;2107389;28;20653;-71
2022/05/28 02:04:39;;;;;;;7.72;2.55;;;;;;;18.95;60.58;100791.06;2109233;28;20051;-72
2022/05/28 02:06:01;;;;;;;6.35;2.38;;;;;;;18.94;60.60;100781.28;2104836;28;20104;-72
2022/05/28 02:07:23;;;;;;;6.20;2.63;;;;;;;18.93;60.50;100778.63;2110063;28;20051;-71
2022/05/28 02:08:49;;;;;;;11.93;2.55;;;;;;;18.91;60.96;100775.97;2113109;28;20075;-71
2022/05/28 02:10:14;;;;;;;8.75;2.50;;;;;;;18.90;60.99;100779.59;2105008;28;20036;-71
2022/05/28 02:11:50;;;;;;;7.05;2.75;;;;;;;18.90;61.08;100782.25;2111204;28;20047;-73
2022/05/28 02:13:18;;;;;;;7.93;2.63;;;;;;;18.84;61.36;100776.13;2115738;28;20055;-72
2022/05/28 02:14:56;;;;;;;6.05;2.40;;;;;;;18.80;61.44;100780.63;2096834;28;20040;-72
2022/05/28 02:16:23;;;;;;;6.15;2.20;;;;;;;18.74;61.49;100783.44;2105887;28;20052;-72
2022/05/28 02:17:50;;;;;;;6.95;3.08;;;;;;;18.69;61.66;100778.16;2113785;28;20047;-72
2022/05/28 02:19:18;;;;;;;8.98;2.70;;;;;;;18.64;61.80;100774.66;2113778;28;20078;-71
2022/05/28 02:20:51;;;;;;;11.00;4.30;;;;;;;18.63;61.94;100772.03;2115602;28;20117;-71
2022/05/28 02:22:21;;;;;;;6.28;2.72;;;;;;;18.68;61.89;100776.41;2114464;28;20051;-71
2022/05/28 02:23:48;;;;;;;7.80;2.75;;;;;;;18.72;61.84;100769.19;2105701;28;20040;-71
2022/05/28 02:25:13;;;;;;;7.05;2.50;;;;;;;18.78;61.80;100771.75;2111500;28;20142;-72
2022/05/28 02:26:43;;;;;;;6.45;2.88;;;;;;;18.85;61.89;100777.88;2111595;28;20040;-71
2022/05/28 02:28:08;;;;;;;8.45;2.28;;;;;;;18.86;61.88;100774.28;2113008;28;20047;-71
2022/05/28 02:29:34;;;;;;;7.57;2.65;;;;;;;18.89;61.89;100772.47;2118403;27;20047;-71
2022/05/28 02:31:03;;;;;;;12.23;2.65;;;;;;;18.93;62.14;100774.16;2112053;28;20035;-71
2022/05/28 02:32:26;;;;;;;7.50;2.90;;;;;;;18.91;61.95;100773.28;2114524;28;20052;-71
2022/05/28 02:33:48;;;;;;;7.97;2.80;;;;;;;18.87;62.19;100768.94;2111771;28;20096;-71
2022/05/28 02:35:13;;;;;;;5.32;2.60;;;;;;;18.86;62.36;100772.50;2111497;28;20142;-71
2022/05/28 02:36:36;;;;;;;10.10;2.92;;;;;;;18.85;62.43;100772.53;2112076;28;20131;-72
2022/05/28 02:37:57;;;;;;;9.15;2.72;;;;;;;18.87;62.59;100768.94;2110602;28;20039;-72
2022/05/28 02:39:19;;;;;;;10.82;2.97;;;;;;;18.89;62.63;100772.47;2111830;27;20133;-72
2022/05/28 02:40:41;;;;;;;10.00;2.72;;;;;;;18.91;62.40;100764.38;2120131;27;20201;-72
2022/05/28 02:42:03;;;;;;;8.98;2.92;;;;;;;18.92;62.35;100775.06;2119559;27;20058;-72
2022/05/28 02:43:25;;;;;;;13.00;5.03;;;;;;;18.89;62.41;100769.78;2105702;28;20066;-72
2022/05/28 02:44:48;;;;;;;12.02;2.92;;;;;;;18.89;62.40;100776.94;2108944;28;20100;-73
2022/05/28 02:46:12;;;;;;;10.50;3.40;;;;;;;18.88;62.55;100775.16;2111789;28;20099;-72
2022/05/28 02:47:35;;;;;;;7.88;2.35;;;;;;;18.86;62.67;100766.28;2105671;28;20145;-72
2022/05/28 02:48:57;;;;;;;6.55;2.90;;;;;;;18.84;62.65;100760.94;2103287;28;20062;-72
2022/05/28 02:50:19;;;;;;;8.02;2.67;;;;;;;18.85;62.58;100777.88;2103118;28;20042;-72
2022/05/28 02:51:42;;;;;;;7.50;2.67;;;;;;;18.83;62.60;100771.69;2094455;28;20079;-72
2022/05/28 02:53:04;;;;;;;7.95;2.78;;;;;;;18.79;62.66;100768.16;2100385;28;20062;-72
2022/05/28 02:54:26;;;;;;;17.60;4.07;;;;;;;18.78;62.79;100769.06;2116302;27;20089;-72
2022/05/28 02:55:48;;;;;;;9.55;2.97;;;;;;;18.78;62.83;100762.84;2115669;27;20043;-72
2022/05/28 02:57:10;;;;;;;8.60;3.67;;;;;;;18.79;62.80;100765.50;2113932;28;20625;-71
2022/05/28 02:58:33;;;;;;;7.30;2.80;;;;;;;18.82;62.60;100768.13;2111459;28;20488;-72
2022/05/28 02:59:56;;;;;;;4.20;2.45;;;;;;;18.83;62.49;100767.22;2101729;28;20056;-71
2022/05/28 03:01:25;;;;;;;6.95;2.88;;;;;;;18.85;62.30;100770.72;2108676;28;20044;-72
2022/05/28 03:02:48;;;;;;;6.05;2.70;;;;;;;18.84;62.23;100771.63;2111758;28;20411;-72
2022/05/28 03:04:10;;;;;;;6.63;2.42;;;;;;;18.81;62.16;100770.81;2111162;28;20036;-72
2022/05/28 03:05:32;;;;;;;7.18;2.15;;;;;;;18.74;62.31;100764.72;2111415;28;20085;-72
2022/05/28 03:06:54;;;;;;;7.47;2.75;;;;;;;18.65;62.37;100765.75;2111173;28;20589;-71
2022/05/28 03:08:17;;;;;;;5.13;2.55;;;;;;;18.54;62.76;100766.81;2102890;28;20048;-71
2022/05/28 03:09:38;;;;;;;10.73;3.50;;;;;;;18.46;63.00;100774.06;2100460;28;20139;-72
2022/05/28 03:11:01;;;;;;;5.13;2.15;;;;;;;18.36;62.90;100777.81;2107943;28;20082;-72
2022/05/28 03:12:23;;;;;;;5.10;1.88;;;;;;;18.27;63.01;100769.03;2111138;28;20125;-72
2022/05/28 03:13:45;;;;;;;11.20;2.55;;;;;;;18.20;62.87;100771.81;2111617;28;20051;-72
2022/05/28 03:15:09;;;;;;;5.32;2.65;;;;;;;18.16;62.89;100767.44;2111260;28;20062;-72
2022/05/28 03:16:33;;;;;;;6.93;2.47;;;;;;;18.17;62.84;100783.44;2103018;28;20412;-72
2022/05/28 03:17:56;;;;;;;6.97;2.30;;;;;;;18.23;62.63;100769.09;2106054;28;20043;-71
2022/05/28 03:19:18;;;;;;;6.82;2.50;;;;;;;18.31;62.32;100770.72;2111396;28;20225;-72
2022/05/28 03:20:40;;;;;;;7.07;2.53;;;;;;;18.40;61.92;100768.81;2111321;28;20489;-72
2022/05/28 03:22:03;;;;;;;8.10;2.47;;;;;;;18.50;61.77;100768.66;2111423;28;20048;-73
2022/05/28 03:23:24;;;;;;;11.48;2.78;;;;;;;18.60;61.34;100770.28;2102840;28;20040;-72
2022/05/28 03:24:47;;;;;;;10.50;2.67;;;;;;;18.67;61.10;100773.75;2105397;28;20036;-73
2022/05/28 03:26:12;;;;;;;7.82;2.55;;;;;;;18.70;60.98;100765.69;2108564;28;20166;-72
2022/05/28 03:27:35;;;;;;;12.23;2.00;;;;;;;18.76;60.99;100770.03;2111608;28;20330;-71
2022/05/28 03:28:57;;;;;;;8.85;3.15;;;;;;;18.85;60.81;100773.41;2111356;28;20044;-72
2022/05/28 03:30:19;;;;;;;8.18;2.80;;;;;;;18.95;60.61;100766.13;2111350;28;20102;-72
2022/05/28 03:31:44;;;;;;;4.63;2.15;;;;;;;19.04;60.55;100765.91;2102336;28;20044;-73
2022/05/28 03:33:05;;;;;;;11.25;2.60;;;;;;;19.08;60.61;100771.22;2102839;28;20089;-72
2022/05/28 03:34:28;;;;;;;9.98;2.40;;;;;;;19.16;60.30;100773.75;2116922;27;20043;-72
2022/05/28 03:35:49;;;;;;;6.38;2.50;;;;;;;19.25;60.02;100773.53;2119145;27;20043;-72
2022/05/28 03:37:12;;;;;;;6.95;2.40;;;;;;;19.36;59.67;100771.53;2111010;28;20052;-72
2022/05/28 03:38:35;;;;;;;7.72;2.50;;;;;;;19.46;59.54;100772.25;2116925;27;20063;-72
2022/05/28 03:39:57;;;;;;;6.70;2.10;;;;;;;19.53;59.37;100773.03;2104966;28;20101;-72
2022/05/28 03:41:20;;;;;;;3.60;2.30;;;;;;;19.60;59.32;100774.66;2108199;28;20541;-72
2022/05/28 03:42:42;;;;;;;5.80;2.35;;;;;;;19.69;59.34;100779.84;2110172;28;20052;-72
2022/05/28 03:44:05;;;;;;;15.38;6.28;;;;;;;19.78;59.24;100777.81;2102606;28;20129;-72
2022/05/28 03:45:28;;;;;;;10.40;4.55;;;;;;;19.89;59.02;100777.56;2110910;28;20036;-72
2022/05/28 03:46:51;;;;;;;8.73;4.07;;;;;;;20.00;58.60;100780.03;2111161;28;20055;-72
2022/05/28 03:48:14;;;;;;;14.82;6.15;;;;;;;20.08;58.69;100770.91;2111060;28;20055;-72
2022/05/28 03:49:39;;;;;;;5.82;2.28;;;;;;;20.21;58.34;100774.19;2111064;28;20058;-72
2022/05/28 03:51:01;;;;;;;8.95;2.13;;;;;;;20.34;57.90;100774.78;2111370;28;20040;-71
2022/05/28 03:52:23;;;;;;;9.63;2.20;;;;;;;20.42;57.25;100779.03;2116137;27;20046;-72
2022/05/28 03:53:45;;;;;;;9.60;3.55;;;;;;;20.55;57.23;100776.91;2102309;28;20520;-71
2022/05/28 03:55:08;;;;;;;8.93;2.70;;;;;;;20.67;56.74;100774.84;2099112;28;20432;-72
2022/05/28 03:56:36;;;;;;;6.90;1.80;;;;;;;20.80;56.31;100778.09;2116861;27;20039;-72
2022/05/28 03:57:59;;;;;;;8.25;2.92;;;;;;;20.92;56.06;100777.75;2105162;28;20169;-72
2022/05/28 03:59:21;;;;;;;10.80;2.88;;;;;;;21.02;55.67;100778.38;2099998;28;20146;-72
2022/05/28 04:00:44;;;;;;;6.70;2.53;;;;;;;21.08;55.49;100778.19;2109216;28;20341;-72
2022/05/28 04:02:08;;;;;;;7.35;2.03;;;;;;;21.17;55.21;100777.13;2110478;28;20056;-72
2022/05/28 04:03:31;;;;;;;9.30;2.22;;;;;;;21.28;54.79;100778.56;2110422;28;20043;-72
2022/05/28 04:04:54;;;;;;;5.72;1.80;;;;;;;21.45;54.59;100776.31;2102052;28;20064;-71
2022/05/28 04:06:17;;;;;;;10.23;1.92;;;;;;;21.63;53.88;100779.38;2102007;28;20079;-72
2022/05/28 04:07:39;;;;;;;10.80;2.55;;;;;;;21.78;53.51;100773.53;2099322;28;20040;-71
2022/05/28 04:09:02;;;;;;;7.82;1.70;;;;;;;21.94;52.94;100773.94;2108210;28;20106;-72
2022/05/28 04:10:24;;;;;;;6.13;2.15;;;;;;;22.09;52.60;100771.69;2110978;28;20048;-71
2022/05/28 04:11:47;;;;;;;8.80;2.15;;;;;;;22.25;52.31;100769.41;2102348;28;20047;-72
2022/05/28 04:13:10;;;;;;;7.28;1.83;;;;;;;22.41;52.04;100772.47;2108149;28;20043;-72
2022/05/28 04:14:32;;;;;;;4.53;2.38;;;;;;;22.58;51.71;100772.75;2110751;28;20060;-72
2022/05/28 04:15:55;;;;;;;9.27;2.80;;;;;;;22.75;51.23;100772.25;2109629;28;20690;-71
2022/05/28 04:17:18;;;;;;;7.15;2.13;;;;;;;22.91;50.82;100778.84;2102575;28;20399;-72
2022/05/28 04:18:41;;;;;;;5.88;2.10;;;;;;;23.05;50.46;100772.03;2108283;28;20036;-72
2022/05/28 04:20:05;;;;;;;5.50;1.80;;;;;;;23.22;50.02;100774.16;2110697;28;20473;-72
2022/05/28 04:21:26;;;;;;;5.60;1.77;;;;;;;23.35;49.53;100770.06;2102123;28;20554;-72
2022/05/28 04:22:48;;;;;;;9.55;2.13;;;;;;;23.54;49.32;100773.00;2110889;28;20051;-72
2022/05/28 04:24:10;;;;;;;5.88;2.00;;;;;;;23.75;48.82;100768.59;2096349;28;20194;-72
2022/05/28 04:25:32;;;;;;;6.63;1.38;;;;;;;23.93;48.01;100769.69;2099286;28;20119;-72
2022/05/28 04:26:55;;;;;;;11.73;1.58;;;;;;;24.12;47.31;100770.72;2102482;28;20487;-72
2022/05/28 04:28:16;;;;;;;11.63;1.77;;;;;;;24.32;46.55;100767.25;2099625;28;20047;-72
2022/05/28 04:29:38;;;;;;;5.90;1.55;;;;;;;24.52;45.70;100770.00;2119081;27;20141;-72
2022/05/28 04:31:01;;;;;;;7.22;1.73;;;;;;;24.72;45.27;100767.34;2101679;28;20076;-73
2022/05/28 04:32:25;;;;;;;8.00;1.63;;;;;;;24.94;44.39;100764.63;2099440;28;20047;-72
2022/05/28 04:33:47;;;;;;;9.07;1.65;;;;;;;25.14;44.21;100763.75;2108217;28;20066;-73
2022/05/28 04:35:10;;;;;;;5.75;1.75;;;;;;;25.35;43.95;100771.75;2102043;28;20043;-72
2022/05/28 04:36:32;;;;;;;10.88;2.10;;;;;;;25.58;43.60;100768.06;2108159;28;20058;-73
2022/05/28 04:37:55;;;;;;;7.00;1.70;;;;;;;25.82;43.20;100774.13;2113304;28;20091;-72
2022/05/28 04:39:18;;;;;;;10.93;1.80;;;;;;;26.01;42.62;100771.41;2113413;28;20051;-72
2022/05/28 04:40:40;;;;;;;9.35;1.90;;;;;;;26.22;42.17;100770.38;2110522;28;20587;-72
2022/05/28 04:42:02;;;;;;;10.00;1.52;;;;;;;26.43;42.00;100763.06;2102068;28;20419;-73
2022/05/28 04:43:24;;;;;;;4.60;1.45;;;;;;;26.60;41.43;100763.09;2110568;28;20388;-72
2022/05/28 04:44:45;;;;;;;19.05;2.30;;;;;;;26.77;40.82;100759.53;2110243;28;20675;-73
2022/05/28 04:46:08;;;;;;;8.10;2.03;;;;;;;26.92;40.43;100758.75;2088395;28;20057;-72
2022/05/28 04:47:31;;;;;;;6.25;1.65;;;;;;;27.07;40.01;100762.50;2097219;28;20473;-72
2022/05/28 04:48:53;;;;;;;7.30;1.80;;;;;;;27.25;39.42;100756.97;2102385;28;20051;-73
2022/05/28 04:50:15;;;;;;;8.27;1.80;;;;;;;27.47;38.99;100755.84;2099180;28;20158;-72
2022/05/28 04:51:37;;;;;;;8.32;1.60;;;;;;;27.68;38.66;100762.84;2102070;28;20483;-73
2022/05/28 04:53:00;;;;;;;7.80;1.65;;;;;;;27.92;38.40;100760.56;2107721;28;20130;-73
2022/05/28 04:54:21;;;;;;;10.43;2.45;;;;;;;28.21;37.75;100759.84;2110335;28;20035;-72
2022/05/28 04:55:45;;;;;;;8.60;1.77;;;;;;;28.45;36.95;100746.66;2101782;28;20040;-72
2022/05/28 04:57:06;;;;;;;7.25;1.65;;;;;;;28.68;36.49;100761.63;2108076;28;20093;-72
2022/05/28 04:58:29;;;;;;;6.22;1.45;;;;;;;28.92;36.07;100752.03;2110571;28;20043;-73
2022/05/28 04:59:52;;;;;;;7.00;1.60;;;;;;;29.18;35.45;100756.75;2098076;28;20407;-73
2022/05/28 05:01:15;;;;;;;7.95;1.95;;;;;;;29.41;34.99;100762.59;2101288;28;20132;-72
2022/05/28 05:02:40;;;;;;;6.88;1.50;;;;;;;29.63;34.87;100760.28;2122282;27;20050;-72
2022/05/28 05:04:02;;;;;;;12.50;2.72;;;;;;;29.83;34.85;100768.06;2107193;28;20052;-73
2022/05/28 05:05:25;;;;;;;8.90;2.03;;;;;;;30.06;34.80;100763.91;2102037;28;20048;-72
2022/05/28 05:06:47;;;;;;;10.45;1.55;;;;;;;30.24;34.70;100759.09;2113267;28;20447;-73
2022/05/28 05:08:10;;;;;;;7.72;1.63;;;;;;;30.42;34.21;100761.47;2108555;28;20039;-73
2022/05/28 05:09:32;;;;;;;8.55;1.73;;;;;;;30.61;33.82;100761.13;2107319;28;20159;-73
2022/05/28 05:10:53;;;;;;;7.78;1.48;;;;;;;30.88;33.26;100763.81;2113141;28;20437;-73
2022/05/28 05:12:17;;;;;;;7.57;1.70;;;;;;;31.14;32.37;100771.09;2104533;28;20055;-73
2022/05/28 05:13:38;;;;;;;8.55;1.73;;;;;;;31.31;32.15;100764.44;2102290;28;20466;-73
2022/05/28 05:15:01;;;;;;;6.72;2.05;;;;;;;31.42;31.55;100763.69;2102194;28;20431;-73
2022/05/28 05:16:24;;;;;;;6.93;1.27;;;;;;;31.57;30.86;100766.19;2109668;28;20505;-72
2022/05/28 05:17:48;;;;;;;7.80;1.70;;;;;;;31.74;30.42;100764.16;2101970;28;20063;-73
2022/05/28 05:19:11;;;;;;;8.15;1.70;;;;;;;31.92;30.20;100763.66;2108141;28;20038;-73
2022/05/28 05:20:33;;;;;;;9.70;1.58;;;;;;;32.14;30.03;100770.31;2101911;28;20151;-73
2022/05/28 05:21:56;;;;;;;10.68;1.90;;;;;;;32.35;29.51;100766.88;2099389;28;20040;-73
2022/05/28 05:23:17;;;;;;;5.30;1.33;;;;;;;32.50;29.55;100759.34;2110677;28;20089;-73
2022/05/28 05:24:40;;;;;;;9.38;2.20;;;;;;;32.67;28.83;100764.47;2101708;28;20044;-73
2022/05/28 05:26:07;;;;;;;10.77;1.60;;;;;;;32.82;28.36;100760.53;2107893;28;20052;-74
2022/05/28 05:27:29;;;;;;;11.50;1.60;;;;;;;32.97;27.92;100763.94;2111393;28;20557;-73
2022/05/28 05:28:52;;;;;;;10.90;1.38;;;;;;;33.07;27.47;100762.25;2101678;28;20622;-73
2022/05/28 05:30:14;;;;;;;11.70;1.88;;;;;;;33.22;27.43;100768.38;2105601;28;20047;-73
2022/05/28 05:31:36;;;;;;;10.10;1.63;;;;;;;33.33;27.60;100771.19;2108312;28;20055;-73
2022/05/28 05:33:00;;;;;;;6.78;1.27;;;;;;;33.49;26.69;100762.59;2108154;28;20035;-73
2022/05/28 05:34:21;;;;;;;7.35;1.52;;;;;;;33.66;26.78;100764.88;2110514;28;20425;-72
2022/05/28 05:35:44;;;;;;;8.13;1.40;;;;;;;33.80;26.52;100772.00;2108955;28;20043;-73
2022/05/28 05:37:06;;;;;;;6.65;1.50;;;;;;;33.93;26.29;100768.13;2104703;28;20105;-73
2022/05/28 05:38:28;;;;;;;7.65;1.17;;;;;;;34.07;25.92;100771.59;2101873;28;20052;-73
2022/05/28 05:39:52;;;;;;;8.05;2.22;;;;;;;34.19;25.54;100774.22;2099602;28;20040;-73
2022/05/28 05:41:14;;;;;;;12.88;1.77;;;;;;;34.26;25.79;100772.72;2102239;28;20076;-73
2022/05/28 05:42:37;;;;;;;7.05;1.67;;;;;;;34.38;25.73;100768.09;2093739;28;20604;-73
2022/05/28 05:43:58;;;;;;;9.63;2.05;;;;;;;34.55;25.35;100772.13;2102179;28;20036;-73
2022/05/28 05:45:21;;;;;;;10.73;1.73;;;;;;;34.66;24.81;100777.56;2104535;28;20138;-73
2022/05/28 05:46:44;;;;;;;6.75;1.40;;;;;;;34.79;24.55;100776.44;2104001;28;20162;-74
2022/05/28 05:48:09;;;;;;;10.32;1.52;;;;;;;34.92;24.32;100772.66;2107245;28;20563;-74
2022/05/28 05:49:30;;;;;;;10.15;2.10;;;;;;;34.95;24.04;100773.25;2110342;28;20048;-73
2022/05/28 05:50:53;;;;;;;8.13;1.52;;;;;;;34.99;23.78;100776.59;2109978;28;20035;-74
2022/05/28 05:52:15;;;;;;;10.02;1.73;;;;;;;35.00;23.58;100775.59;2093374;28;20048;-73
2022/05/28 05:53:37;;;;;;;8.63;1.55;;;;;;;35.03;23.50;100773.47;2098955;28;20052;-73
2022/05/28 05:55:01;;;;;;;8.30;1.20;;;;;;;35.15;23.28;100772.41;2104255;28;20051;-73
2022/05/28 05:56:24;;;;;;;5.55;1.23;;;;;;;35.30;23.19;100770.22;2093675;28;20122;-73
2022/05/28 05:57:45;;;;;;;5.25;1.42;;;;;;;35.41;23.44;100772.91;2095886;28;20139;-74
2022/05/28 05:59:08;;;;;;;7.72;1.88;;;;;;;35.46;23.42;100770.59;2107315;28;20055;-74
2022/05/28 06:00:30;;;;;;;7.40;1.75;;;;;;;35.55;23.20;100763.44;2104474;28;20437;-74
2022/05/28 06:01:52;;;;;;;5.82;1.60;;;;;;;35.63;23.52;100771.88;2111871;28;20075;-73
2022/05/28 06:03:18;;;;;;;6.72;1.40;;;;;;;35.61;23.62;100764.75;2111598;28;20071;-74
2022/05/28 06:04:41;;;;;;;7.78;1.95;;;;;;;35.59;24.14;100775.88;2097633;28;20654;-73
2022/05/28 06:06:06;;;;;;;7.43;1.23;;;;;;;35.55;24.87;100764.31;2102962;28;20043;-72
2022/05/28 06:07:31;;;;;;;8.85;1.40;;;;;;;35.56;25.13;100774.28;2103059;28;20731;-73
2022/05/28 06:08:54;;;;;;;9.18;1.50;;;;;;;35.66;25.37;100777.06;2095229;28;20044;-73
2022/05/28 06:10:16;;;;;;;5.32;1.63;;;;;;;35.75;24.90;100778.19;2100615;28;20052;-72
2022/05/28 06:11:38;;;;;;;6.13;1.23;;;;;;;35.74;24.39;100774.56;2101501;28;20073;-73
2022/05/28 06:13:01;;;;;;;8.13;1.90;;;;;;;35.62;24.64;100772.88;2102577;28;20094;-73
2022/05/28 06:14:23;;;;;;;9.90;1.40;;;;;;;35.58;24.50;100775.00;2101810;28;20051;-73
2022/05/28 06:15:46;;;;;;;10.40;2.42;;;;;;;35.49;24.39;100773.09;2103004;28;20171;-73
2022/05/28 06:17:09;;;;;;;7.57;1.73;;;;;;;35.41;24.32;100774.78;2111085;27;20053;-74
2022/05/28 06:18:32;;;;;;;5.32;1.85;;;;;;;35.39;24.09;100769.41;2103537;28;20059;-73
2022/05/28 06:19:54;;;;;;;7.93;2.00;;;;;;;35.37;24.24;100771.44;2102248;28;20054;-73
2022/05/28 06:21:17;;;;;;;7.85;1.45;;;;;;;35.38;23.64;100773.16;2094873;28;20051;-73
2022/05/28 06:22:40;;;;;;;10.23;1.65;;;;;;;35.36;23.82;100772.44;2100959;28;20121;-73
2022/05/28 06:24:02;;;;;;;6.25;1.40;;;;;;;35.29;24.11;100776.72;2102646;28;20148;-73
2022/05/28 06:25:24;;;;;;;5.50;1.55;;;;;;;35.36;24.19;100766.94;2102817;28;20128;-73
2022/05/28 06:26:47;;;;;;;7.30;1.67;;;;;;;35.44;24.62;100767.16;2105219;28;20048;-73
2022/05/28 06:28:09;;;;;;;8.75;1.55;;;;;;;35.50;24.57;100769.34;2102606;28;20047;-73
2022/05/28 06:29:32;;;;;;;12.25;1.83;;;;;;;35.56;24.42;100766.06;2094343;28;20056;-73